sensor_id;sensor_type;location;lat;lon;timestamp;P1;durP1;ratioP1;P2;durP2;ratioP2
52642;SDS011;38531;53.296;6.614;2022-08-19T00:02:23;1.10;;;0.60;;
52642;SDS011;38531;53.296;6.614;2022-08-19T00:04:52;0.90;;;0.70;;
52642;SDS011;38531;53.296;6.614;2022-08-19T00:07:18;1.02;;;0.57;;
52642;SDS011;38531;53.296;6.614;2022-08-19T00:09:46;1.30;;;0.77;;
52642;SDS011;38531;53.296;6.614;2022-08-19T00:12:14;1.23;;;0.75;;
52642;SDS011;38531;53.296;6.614;2022-08-19T00:14:43;2.35;;;0.85;;
52642;SDS011;38531;53.296;6.614;2022-08-19T00:17:09;1.52;;;1.05;;
52642;SDS011;38531;53.296;6.614;2022-08-19T00:19:41;2.28;;;1.08;;
52642;SDS011;38531;53.296;6.614;2022-08-19T00:22:07;1.67;;;0.90;;
52642;SDS011;38531;53.296;6.614;2022-08-19T00:24:34;1.73;;;1.20;;
52642;SDS011;38531;53.296;6.614;2022-08-19T00:27:10;1.15;;;0.95;;
52642;SDS011;38531;53.296;6.614;2022-08-19T00:29:48;1.55;;;1.02;;
52642;SDS011;38531;53.296;6.614;2022-08-19T00:32:25;1.75;;;1.10;;
52642;SDS011;38531;53.296;6.614;2022-08-19T00:35:10;2.50;;;1.23;;
52642;SDS011;38531;53.296;6.614;2022-08-19T00:38:17;2.10;;;1.17;;
52642;SDS011;38531;53.296;6.614;2022-08-19T00:40:47;3.35;;;1.15;;
52642;SDS011;38531;53.296;6.614;2022-08-19T00:43:25;1.50;;;1.00;;
52642;SDS011;38531;53.296;6.614;2022-08-19T00:45:55;2.28;;;1.00;;
52642;SDS011;38531;53.296;6.614;2022-08-19T00:55:51;2.80;;;1.50;;
52642;SDS011;38531;53.296;6.614;2022-08-19T00:58:41;2.28;;;1.30;;
52642;SDS011;38531;53.296;6.614;2022-08-19T01:01:15;2.10;;;1.15;;
52642;SDS011;38531;53.296;6.614;2022-08-19T01:03:46;2.78;;;1.25;;
52642;SDS011;38531;53.296;6.614;2022-08-19T01:06:17;2.47;;;1.17;;
52642;SDS011;38531;53.296;6.614;2022-08-19T01:08:47;1.90;;;1.10;;
52642;SDS011;38531;53.296;6.614;2022-08-19T01:11:20;1.92;;;1.20;;
52642;SDS011;38531;53.296;6.614;2022-08-19T01:14:11;1.20;;;0.90;;
52642;SDS011;38531;53.296;6.614;2022-08-19T01:26:21;0.93;;;0.80;;
52642;SDS011;38531;53.296;6.614;2022-08-19T01:29:22;1.50;;;0.80;;
52642;SDS011;38531;53.296;6.614;2022-08-19T01:32:28;1.27;;;0.60;;
52642;SDS011;38531;53.296;6.614;2022-08-19T01:35:07;1.60;;;0.60;;
52642;SDS011;38531;53.296;6.614;2022-08-19T01:37:55;0.77;;;0.50;;
52642;SDS011;38531;53.296;6.614;2022-08-19T01:40:40;1.02;;;0.50;;
52642;SDS011;38531;53.296;6.614;2022-08-19T01:45:56;0.90;;;0.57;;
52642;SDS011;38531;53.296;6.614;2022-08-19T01:55:46;0.57;;;0.30;;
52642;SDS011;38531;53.296;6.614;2022-08-19T01:58:18;0.60;;;0.28;;
52642;SDS011;38531;53.296;6.614;2022-08-19T02:00:49;0.70;;;0.40;;
52642;SDS011;38531;53.296;6.614;2022-08-19T02:10:08;0.77;;;0.60;;
52642;SDS011;38531;53.296;6.614;2022-08-19T02:12:40;1.05;;;0.40;;
52642;SDS011;38531;53.296;6.614;2022-08-19T02:15:18;0.40;;;0.30;;
52642;SDS011;38531;53.296;6.614;2022-08-19T02:17:48;0.40;;;0.30;;
52642;SDS011;38531;53.296;6.614;2022-08-19T02:20:14;2.35;;;0.40;;
52642;SDS011;38531;53.296;6.614;2022-08-19T02:22:41;0.40;;;0.30;;
52642;SDS011;38531;53.296;6.614;2022-08-19T02:25:09;0.80;;;0.40;;
52642;SDS011;38531;53.296;6.614;2022-08-19T02:27:36;0.57;;;0.40;;
52642;SDS011;38531;53.296;6.614;2022-08-19T02:30:05;0.65;;;0.40;;
52642;SDS011;38531;53.296;6.614;2022-08-19T02:32:35;0.65;;;0.40;;
52642;SDS011;38531;53.296;6.614;2022-08-19T02:35:04;0.98;;;0.50;;
52642;SDS011;38531;53.296;6.614;2022-08-19T02:37:30;1.02;;;0.50;;
52642;SDS011;38531;53.296;6.614;2022-08-19T02:40:14;1.33;;;0.50;;
52642;SDS011;38531;53.296;6.614;2022-08-19T02:42:43;1.20;;;0.60;;
52642;SDS011;38531;53.296;6.614;2022-08-19T02:45:10;1.08;;;0.55;;
52642;SDS011;38531;53.296;6.614;2022-08-19T02:47:37;0.80;;;0.60;;
52642;SDS011;38531;53.296;6.614;2022-08-19T02:50:03;1.65;;;0.60;;
52642;SDS011;38531;53.296;6.614;2022-08-19T02:52:31;0.80;;;0.40;;
52642;SDS011;38531;53.296;6.614;2022-08-19T02:54:57;2.10;;;0.35;;
52642;SDS011;38531;53.296;6.614;2022-08-19T02:57:23;0.30;;;0.30;;
52642;SDS011;38531;53.296;6.614;2022-08-19T02:59:49;0.52;;;0.28;;
52642;SDS011;38531;53.296;6.614;2022-08-19T03:02:15;0.50;;;0.30;;
52642;SDS011;38531;53.296;6.614;2022-08-19T03:04:41;0.45;;;0.28;;
52642;SDS011;38531;53.296;6.614;2022-08-19T03:07:07;1.15;;;0.50;;
52642;SDS011;38531;53.296;6.614;2022-08-19T03:09:35;0.93;;;0.40;;
52642;SDS011;38531;53.296;6.614;2022-08-19T03:12:05;0.40;;;0.30;;
52642;SDS011;38531;53.296;6.614;2022-08-19T03:14:32;0.80;;;0.60;;
52642;SDS011;38531;53.296;6.614;2022-08-19T03:16:59;0.98;;;0.50;;
52642;SDS011;38531;53.296;6.614;2022-08-19T03:19:25;1.15;;;0.60;;
52642;SDS011;38531;53.296;6.614;2022-08-19T03:21:52;0.63;;;0.50;;
52642;SDS011;38531;53.296;6.614;2022-08-19T03:24:20;1.77;;;0.50;;
52642;SDS011;38531;53.296;6.614;2022-08-19T03:26:51;0.82;;;0.50;;
52642;SDS011;38531;53.296;6.614;2022-08-19T03:29:20;1.00;;;0.70;;
52642;SDS011;38531;53.296;6.614;2022-08-19T03:31:51;1.30;;;0.68;;
52642;SDS011;38531;53.296;6.614;2022-08-19T03:34:24;1.40;;;0.80;;
52642;SDS011;38531;53.296;6.614;2022-08-19T03:36:52;1.30;;;0.80;;
52642;SDS011;38531;53.296;6.614;2022-08-19T03:39:22;1.73;;;0.70;;
52642;SDS011;38531;53.296;6.614;2022-08-19T03:41:52;1.77;;;0.90;;
52642;SDS011;38531;53.296;6.614;2022-08-19T03:44:35;1.80;;;0.90;;
52642;SDS011;38531;53.296;6.614;2022-08-19T03:49:31;1.02;;;0.63;;
52642;SDS011;38531;53.296;6.614;2022-08-19T03:52:02;1.15;;;0.70;;
52642;SDS011;38531;53.296;6.614;2022-08-19T03:54:32;0.98;;;0.55;;
52642;SDS011;38531;53.296;6.614;2022-08-19T03:56:58;1.38;;;0.70;;
52642;SDS011;38531;53.296;6.614;2022-08-19T03:59:34;1.05;;;0.70;;
52642;SDS011;38531;53.296;6.614;2022-08-19T04:02:10;2.55;;;0.88;;
52642;SDS011;38531;53.296;6.614;2022-08-19T04:04:41;1.10;;;0.70;;
52642;SDS011;38531;53.296;6.614;2022-08-19T04:07:09;1.00;;;0.60;;
52642;SDS011;38531;53.296;6.614;2022-08-19T04:09:40;1.25;;;0.80;;
52642;SDS011;38531;53.296;6.614;2022-08-19T04:12:11;0.90;;;0.60;;
52642;SDS011;38531;53.296;6.614;2022-08-19T04:14:39;0.65;;;0.40;;
52642;SDS011;38531;53.296;6.614;2022-08-19T04:17:05;0.57;;;0.40;;
52642;SDS011;38531;53.296;6.614;2022-08-19T04:19:52;0.30;;;0.30;;
52642;SDS011;38531;53.296;6.614;2022-08-19T04:22:20;0.55;;;0.40;;
52642;SDS011;38531;53.296;6.614;2022-08-19T04:24:54;0.52;;;0.40;;
52642;SDS011;38531;53.296;6.614;2022-08-19T04:27:23;0.75;;;0.45;;
52642;SDS011;38531;53.296;6.614;2022-08-19T04:29:49;1.25;;;0.50;;
52642;SDS011;38531;53.296;6.614;2022-08-19T04:32:15;0.82;;;0.40;;
52642;SDS011;38531;53.296;6.614;2022-08-19T04:34:40;0.88;;;0.50;;
52642;SDS011;38531;53.296;6.614;2022-08-19T04:37:07;0.95;;;0.50;;
52642;SDS011;38531;53.296;6.614;2022-08-19T04:39:37;0.98;;;0.50;;
52642;SDS011;38531;53.296;6.614;2022-08-19T04:42:22;0.95;;;0.50;;
52642;SDS011;38531;53.296;6.614;2022-08-19T04:45:13;1.00;;;0.60;;
52642;SDS011;38531;53.296;6.614;2022-08-19T04:47:42;0.98;;;0.50;;
52642;SDS011;38531;53.296;6.614;2022-08-19T04:50:12;0.65;;;0.50;;
52642;SDS011;38531;53.296;6.614;2022-08-19T04:52:41;1.20;;;0.30;;
52642;SDS011;38531;53.296;6.614;2022-08-19T04:55:14;0.40;;;0.40;;
52642;SDS011;38531;53.296;6.614;2022-08-19T04:57:40;0.55;;;0.47;;
52642;SDS011;38531;53.296;6.614;2022-08-19T05:02:53;0.57;;;0.38;;
52642;SDS011;38531;53.296;6.614;2022-08-19T05:09:19;0.85;;;0.50;;
52642;SDS011;38531;53.296;6.614;2022-08-19T05:11:48;1.00;;;0.60;;
52642;SDS011;38531;53.296;6.614;2022-08-19T05:14:14;0.65;;;0.45;;
52642;SDS011;38531;53.296;6.614;2022-08-19T05:16:40;1.98;;;0.50;;
52642;SDS011;38531;53.296;6.614;2022-08-19T05:19:09;0.82;;;0.60;;
52642;SDS011;38531;53.296;6.614;2022-08-19T05:21:53;1.13;;;0.60;;
52642;SDS011;38531;53.296;6.614;2022-08-19T05:59:26;2.43;;;0.97;;
52642;SDS011;38531;53.296;6.614;2022-08-19T06:02:16;2.10;;;1.17;;
52642;SDS011;38531;53.296;6.614;2022-08-19T06:12:33;2.28;;;0.80;;
52642;SDS011;38531;53.296;6.614;2022-08-19T06:15:10;2.13;;;1.17;;
52642;SDS011;38531;53.296;6.614;2022-08-19T06:17:51;3.88;;;1.50;;
52642;SDS011;38531;53.296;6.614;2022-08-19T06:20:16;2.38;;;1.30;;
52642;SDS011;38531;53.296;6.614;2022-08-19T06:22:45;1.40;;;1.02;;
52642;SDS011;38531;53.296;6.614;2022-08-19T06:25:14;2.30;;;1.35;;
52642;SDS011;38531;53.296;6.614;2022-08-19T06:27:45;2.85;;;1.42;;
52642;SDS011;38531;53.296;6.614;2022-08-19T06:32:40;3.00;;;1.83;;
52642;SDS011;38531;53.296;6.614;2022-08-19T10:01:56;4.10;;;3.03;;
52642;SDS011;38531;53.296;6.614;2022-08-19T10:07:29;5.30;;;2.13;;
52642;SDS011;38531;53.296;6.614;2022-08-19T10:10:27;3.60;;;2.70;;
52642;SDS011;38531;53.296;6.614;2022-08-19T10:12:55;4.78;;;2.47;;
52642;SDS011;38531;53.296;6.614;2022-08-19T10:15:26;2.33;;;2.13;;
52642;SDS011;38531;53.296;6.614;2022-08-19T10:18:00;3.05;;;2.00;;
52642;SDS011;38531;53.296;6.614;2022-08-19T10:20:29;3.33;;;2.20;;
52642;SDS011;38531;53.296;6.614;2022-08-19T10:22:55;2.53;;;2.03;;
52642;SDS011;38531;53.296;6.614;2022-08-19T10:25:26;3.22;;;2.60;;
52642;SDS011;38531;53.296;6.614;2022-08-19T10:27:52;3.50;;;2.55;;
52642;SDS011;38531;53.296;6.614;2022-08-19T10:30:19;5.03;;;3.15;;
52642;SDS011;38531;53.296;6.614;2022-08-19T10:32:58;3.42;;;2.88;;
52642;SDS011;38531;53.296;6.614;2022-08-19T12:14:22;3.22;;;2.38;;
52642;SDS011;38531;53.296;6.614;2022-08-19T12:16:48;3.72;;;2.70;;
52642;SDS011;38531;53.296;6.614;2022-08-19T12:19:14;3.33;;;2.75;;
52642;SDS011;38531;53.296;6.614;2022-08-19T12:21:40;3.67;;;3.22;;
52642;SDS011;38531;53.296;6.614;2022-08-19T12:24:06;4.00;;;3.60;;
52642;SDS011;38531;53.296;6.614;2022-08-19T12:26:32;4.95;;;2.97;;
52642;SDS011;38531;53.296;6.614;2022-08-19T12:28:59;3.50;;;2.88;;
52642;SDS011;38531;53.296;6.614;2022-08-19T12:31:25;3.95;;;2.40;;
52642;SDS011;38531;53.296;6.614;2022-08-19T12:33:53;4.72;;;3.08;;
52642;SDS011;38531;53.296;6.614;2022-08-19T12:36:18;4.22;;;3.15;;
52642;SDS011;38531;53.296;6.614;2022-08-19T12:38:44;5.05;;;3.25;;
52642;SDS011;38531;53.296;6.614;2022-08-19T12:41:14;3.10;;;2.80;;
52642;SDS011;38531;53.296;6.614;2022-08-19T12:43:42;4.35;;;3.03;;
52642;SDS011;38531;53.296;6.614;2022-08-19T12:46:08;4.22;;;2.80;;
52642;SDS011;38531;53.296;6.614;2022-08-19T12:48:35;4.82;;;3.60;;
52642;SDS011;38531;53.296;6.614;2022-08-19T12:51:06;4.50;;;3.45;;
52642;SDS011;38531;53.296;6.614;2022-08-19T12:53:35;4.30;;;3.58;;
52642;SDS011;38531;53.296;6.614;2022-08-19T12:56:02;3.80;;;3.40;;
52642;SDS011;38531;53.296;6.614;2022-08-19T12:58:28;3.80;;;2.70;;
52642;SDS011;38531;53.296;6.614;2022-08-19T13:01:10;3.38;;;2.90;;
52642;SDS011;38531;53.296;6.614;2022-08-19T13:03:37;5.25;;;4.10;;
52642;SDS011;38531;53.296;6.614;2022-08-19T13:06:04;4.53;;;2.92;;
52642;SDS011;38531;53.296;6.614;2022-08-19T13:08:29;4.22;;;3.25;;
52642;SDS011;38531;53.296;6.614;2022-08-19T13:11:06;3.25;;;2.95;;
52642;SDS011;38531;53.296;6.614;2022-08-19T13:13:32;5.63;;;3.10;;
52642;SDS011;38531;53.296;6.614;2022-08-19T13:16:14;5.00;;;3.70;;
52642;SDS011;38531;53.296;6.614;2022-08-19T13:18:57;4.35;;;3.42;;
52642;SDS011;38531;53.296;6.614;2022-08-19T13:21:24;9.15;;;4.35;;
52642;SDS011;38531;53.296;6.614;2022-08-19T13:23:53;7.88;;;4.18;;
52642;SDS011;38531;53.296;6.614;2022-08-19T13:26:22;9.00;;;4.00;;
52642;SDS011;38531;53.296;6.614;2022-08-19T13:28:49;7.25;;;3.90;;
52642;SDS011;38531;53.296;6.614;2022-08-19T13:34:25;5.90;;;3.88;;
52642;SDS011;38531;53.296;6.614;2022-08-19T13:36:55;6.88;;;3.38;;
52642;SDS011;38531;53.296;6.614;2022-08-19T13:39:21;4.63;;;2.78;;
52642;SDS011;38531;53.296;6.614;2022-08-19T13:41:48;10.48;;;4.97;;
52642;SDS011;38531;53.296;6.614;2022-08-19T13:44:15;5.10;;;3.40;;
52642;SDS011;38531;53.296;6.614;2022-08-19T13:46:45;5.10;;;3.03;;
52642;SDS011;38531;53.296;6.614;2022-08-19T13:49:13;6.95;;;4.32;;
52642;SDS011;38531;53.296;6.614;2022-08-19T13:51:40;5.20;;;3.33;;
52642;SDS011;38531;53.296;6.614;2022-08-19T13:54:07;5.70;;;3.33;;
52642;SDS011;38531;53.296;6.614;2022-08-19T13:56:35;4.40;;;2.30;;
52642;SDS011;38531;53.296;6.614;2022-08-19T14:02:34;6.18;;;3.72;;
52642;SDS011;38531;53.296;6.614;2022-08-19T14:09:03;7.22;;;3.55;;
52642;SDS011;38531;53.296;6.614;2022-08-19T14:11:57;8.70;;;3.80;;
52642;SDS011;38531;53.296;6.614;2022-08-19T14:14:25;6.15;;;3.50;;
52642;SDS011;38531;53.296;6.614;2022-08-19T14:16:57;9.85;;;5.32;;
52642;SDS011;38531;53.296;6.614;2022-08-19T14:20:05;4.75;;;3.15;;
52642;SDS011;38531;53.296;6.614;2022-08-19T14:22:37;13.60;;;5.20;;
52642;SDS011;38531;53.296;6.614;2022-08-19T14:25:07;7.35;;;5.28;;
52642;SDS011;38531;53.296;6.614;2022-08-19T14:27:37;8.18;;;4.18;;
52642;SDS011;38531;53.296;6.614;2022-08-19T14:30:10;9.27;;;5.00;;
52642;SDS011;38531;53.296;6.614;2022-08-19T14:32:37;8.13;;;4.40;;
52642;SDS011;38531;53.296;6.614;2022-08-19T14:35:03;12.48;;;4.70;;
52642;SDS011;38531;53.296;6.614;2022-08-19T14:37:32;6.80;;;3.58;;
52642;SDS011;38531;53.296;6.614;2022-08-19T14:39:59;6.90;;;2.65;;
52642;SDS011;38531;53.296;6.614;2022-08-19T14:42:25;5.53;;;2.30;;
52642;SDS011;38531;53.296;6.614;2022-08-19T14:44:56;7.18;;;3.03;;
52642;SDS011;38531;53.296;6.614;2022-08-19T14:47:24;3.75;;;2.55;;
52642;SDS011;38531;53.296;6.614;2022-08-19T15:00:29;5.90;;;2.43;;
52642;SDS011;38531;53.296;6.614;2022-08-19T15:02:57;6.20;;;3.00;;
52642;SDS011;38531;53.296;6.614;2022-08-19T15:05:43;5.85;;;3.83;;
52642;SDS011;38531;53.296;6.614;2022-08-19T15:32:47;6.85;;;2.40;;
52642;SDS011;38531;53.296;6.614;2022-08-19T15:55:31;4.60;;;2.40;;
52642;SDS011;38531;53.296;6.614;2022-08-19T16:11:59;6.47;;;3.47;;
52642;SDS011;38531;53.296;6.614;2022-08-19T16:28:24;3.92;;;2.50;;
52642;SDS011;38531;53.296;6.614;2022-08-19T16:31:27;4.13;;;1.88;;
52642;SDS011;38531;53.296;6.614;2022-08-19T16:37:43;3.00;;;1.30;;
52642;SDS011;38531;53.296;6.614;2022-08-19T16:40:12;2.92;;;1.50;;
52642;SDS011;38531;53.296;6.614;2022-08-19T16:43:16;5.97;;;1.88;;
52642;SDS011;38531;53.296;6.614;2022-08-19T16:46:37;3.38;;;1.95;;
52642;SDS011;38531;53.296;6.614;2022-08-19T16:49:53;2.28;;;1.50;;
52642;SDS011;38531;53.296;6.614;2022-08-19T16:52:19;3.33;;;1.65;;
52642;SDS011;38531;53.296;6.614;2022-08-19T17:19:31;4.78;;;2.75;;
52642;SDS011;38531;53.296;6.614;2022-08-19T17:55:30;6.72;;;3.15;;
52642;SDS011;38531;53.296;6.614;2022-08-19T18:06:31;5.75;;;2.92;;
52642;SDS011;38531;53.296;6.614;2022-08-19T18:09:00;5.68;;;3.17;;
52642;SDS011;38531;53.296;6.614;2022-08-19T18:11:26;7.47;;;3.42;;
52642;SDS011;38531;53.296;6.614;2022-08-19T18:13:52;8.05;;;3.05;;
52642;SDS011;38531;53.296;6.614;2022-08-19T18:16:17;7.30;;;2.75;;
52642;SDS011;38531;53.296;6.614;2022-08-19T18:18:44;6.03;;;2.92;;
52642;SDS011;38531;53.296;6.614;2022-08-19T18:21:10;8.80;;;4.03;;
52642;SDS011;38531;53.296;6.614;2022-08-19T18:23:36;4.85;;;3.03;;
52642;SDS011;38531;53.296;6.614;2022-08-19T18:26:02;5.88;;;3.47;;
52642;SDS011;38531;53.296;6.614;2022-08-19T18:28:28;4.15;;;2.25;;
52642;SDS011;38531;53.296;6.614;2022-08-19T18:30:54;7.35;;;2.72;;
52642;SDS011;38531;53.296;6.614;2022-08-19T18:33:20;3.47;;;1.80;;
52642;SDS011;38531;53.296;6.614;2022-08-19T18:35:47;4.88;;;2.42;;
52642;SDS011;38531;53.296;6.614;2022-08-19T18:38:16;7.20;;;4.35;;
52642;SDS011;38531;53.296;6.614;2022-08-19T18:41:02;4.63;;;2.30;;
52642;SDS011;38531;53.296;6.614;2022-08-19T18:43:47;6.80;;;4.05;;
52642;SDS011;38531;53.296;6.614;2022-08-19T18:46:31;3.78;;;1.92;;
52642;SDS011;38531;53.296;6.614;2022-08-19T18:49:18;5.80;;;2.67;;
52642;SDS011;38531;53.296;6.614;2022-08-19T18:51:52;2.40;;;1.35;;
52642;SDS011;38531;53.296;6.614;2022-08-19T18:54:19;3.10;;;1.45;;
52642;SDS011;38531;53.296;6.614;2022-08-19T18:56:45;2.85;;;1.40;;
52642;SDS011;38531;53.296;6.614;2022-08-19T18:59:12;3.20;;;1.63;;
52642;SDS011;38531;53.296;6.614;2022-08-19T19:01:39;1.77;;;1.05;;
52642;SDS011;38531;53.296;6.614;2022-08-19T19:04:15;2.60;;;1.50;;
52642;SDS011;38531;53.296;6.614;2022-08-19T19:06:42;3.95;;;1.75;;
52642;SDS011;38531;53.296;6.614;2022-08-19T19:09:13;3.15;;;1.58;;
52642;SDS011;38531;53.296;6.614;2022-08-19T19:14:11;2.20;;;1.38;;
52642;SDS011;38531;53.296;6.614;2022-08-19T19:16:41;2.90;;;1.65;;
52642;SDS011;38531;53.296;6.614;2022-08-19T19:19:13;1.95;;;1.15;;
52642;SDS011;38531;53.296;6.614;2022-08-19T19:21:40;2.65;;;1.48;;
52642;SDS011;38531;53.296;6.614;2022-08-19T19:24:11;2.28;;;1.30;;
52642;SDS011;38531;53.296;6.614;2022-08-19T19:26:39;3.55;;;1.95;;
52642;SDS011;38531;53.296;6.614;2022-08-19T19:29:05;4.07;;;1.88;;
52642;SDS011;38531;53.296;6.614;2022-08-19T19:31:31;4.90;;;2.35;;
52642;SDS011;38531;53.296;6.614;2022-08-19T19:33:58;3.05;;;1.52;;
52642;SDS011;38531;53.296;6.614;2022-08-19T19:36:24;2.25;;;1.27;;
52642;SDS011;38531;53.296;6.614;2022-08-19T19:38:50;1.60;;;1.08;;
52642;SDS011;38531;53.296;6.614;2022-08-19T19:41:18;2.30;;;1.13;;
52642;SDS011;38531;53.296;6.614;2022-08-19T19:43:53;2.08;;;1.38;;
52642;SDS011;38531;53.296;6.614;2022-08-19T19:46:19;2.90;;;1.63;;
52642;SDS011;38531;53.296;6.614;2022-08-19T19:48:45;3.10;;;1.67;;
52642;SDS011;38531;53.296;6.614;2022-08-19T19:51:12;2.63;;;1.38;;
52642;SDS011;38531;53.296;6.614;2022-08-19T19:53:38;4.72;;;2.53;;
52642;SDS011;38531;53.296;6.614;2022-08-19T19:56:04;2.95;;;1.70;;
52642;SDS011;38531;53.296;6.614;2022-08-19T19:58:30;4.47;;;3.15;;
52642;SDS011;38531;53.296;6.614;2022-08-19T20:00:58;2.00;;;1.20;;
52642;SDS011;38531;53.296;6.614;2022-08-19T20:03:25;2.40;;;0.82;;
52642;SDS011;38531;53.296;6.614;2022-08-19T20:05:51;1.70;;;1.08;;
52642;SDS011;38531;53.296;6.614;2022-08-19T20:08:17;1.65;;;0.90;;
52642;SDS011;38531;53.296;6.614;2022-08-19T20:11:02;2.90;;;1.13;;
52642;SDS011;38531;53.296;6.614;2022-08-19T20:13:29;2.35;;;1.00;;
52642;SDS011;38531;53.296;6.614;2022-08-19T20:15:55;1.77;;;1.17;;
52642;SDS011;38531;53.296;6.614;2022-08-19T20:18:22;2.72;;;1.13;;
52642;SDS011;38531;53.296;6.614;2022-08-19T20:20:48;1.05;;;0.75;;
52642;SDS011;38531;53.296;6.614;2022-08-19T20:23:19;2.00;;;1.40;;
52642;SDS011;38531;53.296;6.614;2022-08-19T20:25:57;2.28;;;1.10;;
52642;SDS011;38531;53.296;6.614;2022-08-19T20:28:24;1.58;;;0.80;;
52642;SDS011;38531;53.296;6.614;2022-08-19T20:30:50;1.30;;;0.70;;
52642;SDS011;38531;53.296;6.614;2022-08-19T20:33:16;1.52;;;0.70;;
52642;SDS011;38531;53.296;6.614;2022-08-19T20:35:41;1.48;;;0.80;;
52642;SDS011;38531;53.296;6.614;2022-08-19T20:38:12;1.30;;;0.98;;
52642;SDS011;38531;53.296;6.614;2022-08-19T20:40:39;3.83;;;2.20;;
52642;SDS011;38531;53.296;6.614;2022-08-19T20:43:06;11.18;;;3.20;;
52642;SDS011;38531;53.296;6.614;2022-08-19T20:45:33;2.78;;;1.80;;
52642;SDS011;38531;53.296;6.614;2022-08-19T20:48:00;2.50;;;1.50;;
52642;SDS011;38531;53.296;6.614;2022-08-19T20:50:28;4.30;;;2.10;;
52642;SDS011;38531;53.296;6.614;2022-08-19T20:52:55;4.97;;;2.63;;
52642;SDS011;38531;53.296;6.614;2022-08-19T20:55:21;4.93;;;2.30;;
52642;SDS011;38531;53.296;6.614;2022-08-19T20:57:47;5.30;;;2.55;;
52642;SDS011;38531;53.296;6.614;2022-08-19T21:00:13;3.05;;;2.33;;
52642;SDS011;38531;53.296;6.614;2022-08-19T21:02:39;2.42;;;1.50;;
52642;SDS011;38531;53.296;6.614;2022-08-19T21:05:05;3.13;;;1.33;;
52642;SDS011;38531;53.296;6.614;2022-08-19T21:07:31;1.67;;;1.00;;
52642;SDS011;38531;53.296;6.614;2022-08-19T21:09:57;2.53;;;0.93;;
52642;SDS011;38531;53.296;6.614;2022-08-19T21:12:23;3.63;;;1.88;;
52642;SDS011;38531;53.296;6.614;2022-08-19T21:14:51;1.95;;;1.00;;
52642;SDS011;38531;53.296;6.614;2022-08-19T21:17:17;4.07;;;2.13;;
52642;SDS011;38531;53.296;6.614;2022-08-19T21:19:43;2.70;;;1.45;;
52642;SDS011;38531;53.296;6.614;2022-08-19T21:22:08;4.15;;;1.60;;
52642;SDS011;38531;53.296;6.614;2022-08-19T21:24:35;4.25;;;3.25;;
52642;SDS011;38531;53.296;6.614;2022-08-19T21:27:01;5.53;;;3.05;;
52642;SDS011;38531;53.296;6.614;2022-08-19T21:29:27;3.67;;;2.10;;
52642;SDS011;38531;53.296;6.614;2022-08-19T21:31:53;3.53;;;1.77;;
52642;SDS011;38531;53.296;6.614;2022-08-19T21:34:18;3.63;;;2.25;;
52642;SDS011;38531;53.296;6.614;2022-08-19T21:36:47;4.20;;;1.75;;
52642;SDS011;38531;53.296;6.614;2022-08-19T21:39:13;3.95;;;1.80;;
52642;SDS011;38531;53.296;6.614;2022-08-19T21:41:39;2.08;;;0.90;;
52642;SDS011;38531;53.296;6.614;2022-08-19T21:44:04;1.60;;;0.80;;
52642;SDS011;38531;53.296;6.614;2022-08-19T21:46:30;0.95;;;0.60;;
52642;SDS011;38531;53.296;6.614;2022-08-19T21:49:00;1.80;;;1.08;;
52642;SDS011;38531;53.296;6.614;2022-08-19T21:51:26;1.55;;;0.65;;
52642;SDS011;38531;53.296;6.614;2022-08-19T21:53:52;1.73;;;1.10;;
52642;SDS011;38531;53.296;6.614;2022-08-19T21:56:17;4.80;;;1.67;;
52642;SDS011;38531;53.296;6.614;2022-08-19T21:58:43;3.47;;;1.33;;
52642;SDS011;38531;53.296;6.614;2022-08-19T22:01:09;1.73;;;0.70;;
52642;SDS011;38531;53.296;6.614;2022-08-19T22:03:35;2.10;;;0.85;;
52642;SDS011;38531;53.296;6.614;2022-08-19T22:06:02;1.67;;;1.25;;
52642;SDS011;38531;53.296;6.614;2022-08-19T22:08:28;1.02;;;0.60;;
52642;SDS011;38531;53.296;6.614;2022-08-19T22:10:55;1.23;;;0.77;;
52642;SDS011;38531;53.296;6.614;2022-08-19T22:13:23;2.17;;;1.10;;
52642;SDS011;38531;53.296;6.614;2022-08-19T22:15:50;1.98;;;1.15;;
52642;SDS011;38531;53.296;6.614;2022-08-19T22:18:16;1.00;;;0.60;;
52642;SDS011;38531;53.296;6.614;2022-08-19T22:20:43;3.10;;;0.70;;
52642;SDS011;38531;53.296;6.614;2022-08-19T22:23:43;1.30;;;0.85;;
52642;SDS011;38531;53.296;6.614;2022-08-19T22:26:10;1.30;;;0.80;;
52642;SDS011;38531;53.296;6.614;2022-08-19T22:28:44;1.10;;;0.60;;
52642;SDS011;38531;53.296;6.614;2022-08-19T22:31:10;1.92;;;0.95;;
52642;SDS011;38531;53.296;6.614;2022-08-19T22:33:39;1.42;;;0.77;;
52642;SDS011;38531;53.296;6.614;2022-08-19T22:36:08;1.80;;;0.85;;
52642;SDS011;38531;53.296;6.614;2022-08-19T22:39:05;1.65;;;0.90;;
52642;SDS011;38531;53.296;6.614;2022-08-19T22:41:40;1.50;;;0.90;;
52642;SDS011;38531;53.296;6.614;2022-08-19T22:44:06;3.58;;;1.42;;
52642;SDS011;38531;53.296;6.614;2022-08-19T22:46:35;2.25;;;1.27;;
52642;SDS011;38531;53.296;6.614;2022-08-19T22:49:01;3.17;;;2.35;;
52642;SDS011;38531;53.296;6.614;2022-08-19T22:51:27;2.10;;;1.30;;
52642;SDS011;38531;53.296;6.614;2022-08-19T22:54:11;2.13;;;1.27;;
52642;SDS011;38531;53.296;6.614;2022-08-19T22:56:37;2.33;;;0.88;;
52642;SDS011;38531;53.296;6.614;2022-08-19T22:59:02;1.98;;;1.00;;
52642;SDS011;38531;53.296;6.614;2022-08-19T23:01:28;1.88;;;0.82;;
52642;SDS011;38531;53.296;6.614;2022-08-19T23:03:54;0.98;;;0.80;;
52642;SDS011;38531;53.296;6.614;2022-08-19T23:06:20;1.77;;;0.90;;
52642;SDS011;38531;53.296;6.614;2022-08-19T23:08:47;1.65;;;1.00;;
52642;SDS011;38531;53.296;6.614;2022-08-19T23:11:12;2.47;;;0.73;;
52642;SDS011;38531;53.296;6.614;2022-08-19T23:13:39;2.55;;;2.00;;
52642;SDS011;38531;53.296;6.614;2022-08-19T23:16:05;3.67;;;1.88;;
52642;SDS011;38531;53.296;6.614;2022-08-19T23:18:31;3.47;;;1.52;;
52642;SDS011;38531;53.296;6.614;2022-08-19T23:20:57;2.00;;;1.48;;
52642;SDS011;38531;53.296;6.614;2022-08-19T23:23:24;2.35;;;1.55;;
52642;SDS011;38531;53.296;6.614;2022-08-19T23:25:51;2.85;;;1.40;;
52642;SDS011;38531;53.296;6.614;2022-08-19T23:28:19;2.90;;;1.08;;
52642;SDS011;38531;53.296;6.614;2022-08-19T23:31:04;1.60;;;0.80;;
52642;SDS011;38531;53.296;6.614;2022-08-19T23:33:32;2.22;;;0.90;;
52642;SDS011;38531;53.296;6.614;2022-08-19T23:36:04;2.78;;;0.80;;
52642;SDS011;38531;53.296;6.614;2022-08-19T23:38:32;3.75;;;1.20;;
52642;SDS011;38531;53.296;6.614;2022-08-19T23:40:59;1.83;;;1.20;;
52642;SDS011;38531;53.296;6.614;2022-08-19T23:43:26;2.35;;;0.70;;
52642;SDS011;38531;53.296;6.614;2022-08-19T23:45:54;4.03;;;0.95;;
52642;SDS011;38531;53.296;6.614;2022-08-19T23:48:20;2.55;;;0.90;;
52642;SDS011;38531;53.296;6.614;2022-08-19T23:50:46;1.48;;;0.68;;
52642;SDS011;38531;53.296;6.614;2022-08-19T23:53:13;1.83;;;0.80;;
52642;SDS011;38531;53.296;6.614;2022-08-19T23:55:41;1.98;;;0.80;;
52642;SDS011;38531;53.296;6.614;2022-08-19T23:58:08;2.95;;;0.80;;
